Huvudsida
METAR-TAF:

METAR-TAF

Flygplatser :

Barcelona, Venezuela

latitud: 10-07N, longitud: 064-41W, höjd: 7 m

METAR: saknas

Tid: 17:00 (21:00 UTC)

Väderprognos

Denna rapport gjordes för 5 timmar och 0 minuter sedan, klockan 16:00 UTC
Prognos gäller från 21 kl. 18 UTC till 22 kl. 18 UTC
Vind 5 kt från ost
Sikt 10 km eller mer
Spridda moln på en höjd av 1600 ft
Blir
från 21 kl. 18 UTC till 21 kl. 22 UTC
Vind 5 kt från ost/nordost
Få moln på en höjd av 1600 ft

TAF: SVBC 211600Z 2118/2218 09005KT 9999 SCT016 TX33/19Z TN24/08Z BECMG 2118/2122 07005KT FEW016

Aktuella väderrapporter och prognoser från 4000 flygplatser (METAR- och TAF-rapporter).

De tillgängliga stationerna syns som gula och röda prickar på kartan.

För musen över prickarna för att se namnen på stationerna.

Klicka sedan för att få väderrapporter och prognoser.

För att ändra kartan: Klicka på de gröna knapparna med ett svart kors på för att zooma in; den gröna knappen med ett streck på för att zooma ut; eller på de gröna pilarna för angränsande kartor.


METAR-TAF: